PWSweather.com
Personal Weather Stations
Station Observations

Banska StiavnicaSK

Lat: 48.4359865, Lon: 18.8969299

Elevation: 1804

Station Type: Garni WH1080

http://www.weather-in-banska-stiavnica.sk/index.php

Latest ConditionsUpdated 1:00:02 PM GMT+01:01 Sunday, Jan 20, 2019
Currently Today's Max Today's Min Today's Average
Temperature 31.1°F-0.5°C 31.1°F-0.5°C 23.2°F-4.9°C 26.0°F-3.3°C
Dew Point 16.4°F-8.7°C 17.0°F-8.3°C 13.6°F-10.2°C 15.5°F-9.2°C
Winds 0.7 mph NE1.1 kmh NE 1.4 mph -2.3 kmh - - 0.5 mph 0.8 kmh
Wind Gusts 3.8 mph6.1 kmh 5.4 mph8.7 kmh - -
Humidity 54% 69% 54% 64%
Pressure 29.96 in1014.6 mb 30.04 in1017.3 mb 29.96 in1014.6 mb -
Hour Temp Dew Point Humidity Winds Wind Gusts Pressure Precip Precip Rate Daily Precip Total
01:00 PM 31.1°F-0.5°C 16.4°F-8.7°C 54% 0.7 mph NE1.1 kmh NE 3.8 mph6.1 kmh 29.96 in1014.6 mb 0.00 in0.0 mm 0.00 in0.0 mm 0.00 in0.0 mm
12:30 PM 30.6°F-0.8°C 15.9°F-8.9°C 54% 0.6 mph E1.0 kmh E 3.1 mph5.0 kmh 29.96 in1014.6 mb 0.00 in0.0 mm 0.00 in0.0 mm 0.00 in0.0 mm
12:00 PM 30.0°F-1.1°C 16.3°F-8.7°C 56% 1.0 mph NE1.6 kmh NE 5.4 mph8.7 kmh 29.97 in1014.9 mb 0.00 in0.0 mm 0.00 in0.0 mm 0.00 in0.0 mm
11:30 AM 29.1°F-1.6°C 17.0°F-8.3°C 60% 0.7 mph NE1.1 kmh NE 3.8 mph6.1 kmh 29.98 in1015.2 mb 0.00 in0.0 mm 0.00 in0.0 mm 0.00 in0.0 mm
11:00 AM 27.9°F-2.3°C 16.2°F-8.8°C 61% 1.0 mph N1.6 kmh N 4.5 mph7.2 kmh 29.98 in1015.2 mb 0.00 in0.0 mm 0.00 in0.0 mm 0.00 in0.0 mm
10:30 AM 27.0°F-2.8°C 16.1°F-8.8°C 63% Calm Calm 1.6 mph2.6 kmh 29.98 in1015.2 mb 0.00 in0.0 mm 0.00 in0.0 mm 0.00 in0.0 mm
10:00 AM 26.1°F-3.3°C 15.9°F-8.9°C 65% 0.6 mph N1.0 kmh N 3.1 mph5.0 kmh 29.98 in1015.2 mb 0.00 in0.0 mm 0.00 in0.0 mm 0.00 in0.0 mm
09:30 AM 25.3°F-3.7°C 16.0°F-8.9°C 67% 0.1 mph SW0.2 kmh SW 1.6 mph2.6 kmh 29.98 in1015.2 mb 0.00 in0.0 mm 0.00 in0.0 mm 0.00 in0.0 mm
09:00 AM 24.8°F-4.0°C 15.8°F-9.0°C 68% Calm Calm 1.6 mph2.6 kmh 29.98 in1015.2 mb 0.00 in0.0 mm 0.00 in0.0 mm 0.00 in0.0 mm
08:30 AM 24.1°F-4.4°C 15.1°F-9.4°C 68% Calm Calm -- 29.97 in1014.9 mb 0.00 in0.0 mm 0.00 in0.0 mm 0.00 in0.0 mm
08:00 AM 23.2°F-4.9°C 13.9°F-10.1°C 67% 0.7 mph SW1.1 kmh SW 3.1 mph5.0 kmh 29.96 in1014.6 mb 0.00 in0.0 mm 0.00 in0.0 mm 0.00 in0.0 mm
07:30 AM 23.2°F-4.9°C 13.6°F-10.2°C 66% 0.3 mph S0.5 kmh S 2.2 mph3.5 kmh 29.96 in1014.6 mb 0.00 in0.0 mm 0.00 in0.0 mm 0.00 in0.0 mm
07:00 AM 23.7°F-4.6°C 13.7°F-10.2°C 65% 0.3 mph SW0.5 kmh SW 1.6 mph2.6 kmh 29.96 in1014.6 mb 0.00 in0.0 mm 0.00 in0.0 mm 0.00 in0.0 mm
06:30 AM 24.3°F-4.3°C 13.9°F-10.1°C 64% 0.2 mph SW0.3 kmh SW 1.6 mph2.6 kmh 29.97 in1014.9 mb 0.00 in0.0 mm 0.00 in0.0 mm 0.00 in0.0 mm
06:00 AM 25.0°F-3.9°C 14.2°F-9.9°C 63% Calm Calm 2.2 mph3.5 kmh 29.97 in1014.9 mb 0.00 in0.0 mm 0.00 in0.0 mm 0.00 in0.0 mm
05:30 AM 25.5°F-3.6°C 14.4°F-9.8°C 62% Calm Calm 1.6 mph2.6 kmh 29.97 in1014.9 mb 0.00 in0.0 mm 0.00 in0.0 mm 0.00 in0.0 mm
05:00 AM 25.9°F-3.4°C 14.7°F-9.6°C 62% 0.1 mph N0.2 kmh N 2.2 mph3.5 kmh 29.98 in1015.2 mb 0.00 in0.0 mm 0.00 in0.0 mm 0.00 in0.0 mm
04:30 AM 26.1°F-3.3°C 14.5°F-9.7°C 61% 1.4 mph NE2.3 kmh NE 5.4 mph8.7 kmh 29.98 in1015.2 mb 0.00 in0.0 mm 0.00 in0.0 mm 0.00 in0.0 mm
04:00 AM 26.1°F-3.3°C 15.2°F-9.3°C 63% 1.0 mph SE1.6 kmh SE 3.8 mph6.1 kmh 30.00 in1015.9 mb 0.00 in0.0 mm 0.00 in0.0 mm 0.00 in0.0 mm
03:30 AM 26.1°F-3.3°C 15.6°F-9.1°C 64% 1.3 mph SE2.1 kmh SE 3.8 mph6.1 kmh 30.00 in1015.9 mb 0.00 in0.0 mm 0.00 in0.0 mm 0.00 in0.0 mm
03:00 AM 25.9°F-3.4°C 16.1°F-8.8°C 66% 0.7 mph NNE1.1 kmh NNE 3.1 mph5.0 kmh 30.00 in1015.9 mb 0.00 in0.0 mm 0.00 in0.0 mm 0.00 in0.0 mm
02:30 AM 25.3°F-3.7°C 16.3°F-8.7°C 68% 0.9 mph NE1.4 kmh NE 3.8 mph6.1 kmh 30.02 in1016.6 mb 0.00 in0.0 mm 0.00 in0.0 mm 0.00 in0.0 mm
02:00 AM 25.0°F-3.9°C 16.3°F-8.7°C 69% Calm Calm 1.6 mph2.6 kmh 30.02 in1016.6 mb 0.00 in0.0 mm 0.00 in0.0 mm 0.00 in0.0 mm
01:30 AM 25.0°F-3.9°C 16.3°F-8.7°C 69% 0.1 mph SW0.2 kmh SW 1.6 mph2.6 kmh 30.02 in1016.6 mb 0.00 in0.0 mm 0.00 in0.0 mm 0.00 in0.0 mm
01:00 AM 25.3°F-3.7°C 16.3°F-8.7°C 68% Calm Calm -- 30.03 in1016.9 mb 0.00 in0.0 mm 0.00 in0.0 mm 0.00 in0.0 mm
12:30 AM 25.5°F-3.6°C 16.1°F-8.8°C 67% Calm Calm 0.7 mph1.1 kmh 30.03 in1016.9 mb 0.00 in0.0 mm 0.00 in0.0 mm 0.00 in0.0 mm
12:00 AM 25.7°F-3.5°C 16.3°F-8.7°C 67% 1.0 mph SW1.6 kmh SW 3.1 mph5.0 kmh 30.04 in1017.3 mb 0.00 in0.0 mm 0.00 in0.0 mm 0.00 in0.0 mm